sensor_id;sensor_type;location;lat;lon;timestamp;P1;durP1;ratioP1;P2;durP2;ratioP2
74369;SDS011;62805;44.644;10.942;2022-12-10T00:00:36;34.00;;;15.60;;
74369;SDS011;62805;44.644;10.942;2022-12-10T00:03:02;32.50;;;15.40;;
74369;SDS011;62805;44.644;10.942;2022-12-10T00:05:27;33.45;;;14.82;;
74369;SDS011;62805;44.644;10.942;2022-12-10T00:07:54;33.88;;;15.30;;
74369;SDS011;62805;44.644;10.942;2022-12-10T00:10:19;33.03;;;13.07;;
74369;SDS011;62805;44.644;10.942;2022-12-10T00:12:45;34.72;;;14.88;;
74369;SDS011;62805;44.644;10.942;2022-12-10T00:15:10;31.65;;;14.27;;
74369;SDS011;62805;44.644;10.942;2022-12-10T00:17:36;31.50;;;13.20;;
74369;SDS011;62805;44.644;10.942;2022-12-10T00:20:01;28.77;;;12.32;;
74369;SDS011;62805;44.644;10.942;2022-12-10T00:22:27;26.83;;;13.18;;
74369;SDS011;62805;44.644;10.942;2022-12-10T00:24:52;29.95;;;14.63;;
74369;SDS011;62805;44.644;10.942;2022-12-10T00:27:18;31.30;;;13.68;;
74369;SDS011;62805;44.644;10.942;2022-12-10T00:29:43;30.00;;;13.75;;
74369;SDS011;62805;44.644;10.942;2022-12-10T00:32:09;30.70;;;13.63;;
74369;SDS011;62805;44.644;10.942;2022-12-10T00:34:34;28.15;;;13.45;;
74369;SDS011;62805;44.644;10.942;2022-12-10T00:37:00;29.23;;;14.20;;
74369;SDS011;62805;44.644;10.942;2022-12-10T00:39:26;35.88;;;14.90;;
74369;SDS011;62805;44.644;10.942;2022-12-10T00:41:52;28.17;;;13.10;;
74369;SDS011;62805;44.644;10.942;2022-12-10T00:44:17;30.67;;;12.95;;
74369;SDS011;62805;44.644;10.942;2022-12-10T00:46:43;30.55;;;13.20;;
74369;SDS011;62805;44.644;10.942;2022-12-10T00:49:09;31.63;;;14.82;;
74369;SDS011;62805;44.644;10.942;2022-12-10T00:51:35;27.85;;;13.88;;
74369;SDS011;62805;44.644;10.942;2022-12-10T00:54:00;31.10;;;13.05;;
74369;SDS011;62805;44.644;10.942;2022-12-10T00:56:27;32.88;;;14.07;;
74369;SDS011;62805;44.644;10.942;2022-12-10T00:58:54;32.33;;;14.75;;
74369;SDS011;62805;44.644;10.942;2022-12-10T01:01:21;33.58;;;14.23;;
74369;SDS011;62805;44.644;10.942;2022-12-10T01:03:47;30.85;;;13.73;;
74369;SDS011;62805;44.644;10.942;2022-12-10T01:06:18;28.63;;;14.02;;
74369;SDS011;62805;44.644;10.942;2022-12-10T01:08:44;28.42;;;13.98;;
74369;SDS011;62805;44.644;10.942;2022-12-10T01:11:11;27.63;;;13.90;;
74369;SDS011;62805;44.644;10.942;2022-12-10T01:13:38;30.38;;;14.93;;
74369;SDS011;62805;44.644;10.942;2022-12-10T01:16:04;28.83;;;13.85;;
74369;SDS011;62805;44.644;10.942;2022-12-10T01:18:31;28.67;;;13.15;;
74369;SDS011;62805;44.644;10.942;2022-12-10T01:21:03;30.42;;;13.45;;
74369;SDS011;62805;44.644;10.942;2022-12-10T01:23:33;27.48;;;12.57;;
74369;SDS011;62805;44.644;10.942;2022-12-10T01:26:00;24.80;;;11.98;;
74369;SDS011;62805;44.644;10.942;2022-12-10T01:28:30;28.55;;;12.77;;
74369;SDS011;62805;44.644;10.942;2022-12-10T01:30:59;29.25;;;12.50;;
74369;SDS011;62805;44.644;10.942;2022-12-10T01:33:26;24.65;;;11.55;;
74369;SDS011;62805;44.644;10.942;2022-12-10T01:35:51;27.37;;;13.60;;
74369;SDS011;62805;44.644;10.942;2022-12-10T01:38:17;25.17;;;12.25;;
74369;SDS011;62805;44.644;10.942;2022-12-10T01:40:42;29.23;;;13.53;;
74369;SDS011;62805;44.644;10.942;2022-12-10T01:43:11;28.80;;;13.43;;
74369;SDS011;62805;44.644;10.942;2022-12-10T01:45:39;30.02;;;12.88;;
74369;SDS011;62805;44.644;10.942;2022-12-10T01:48:04;28.67;;;12.77;;
74369;SDS011;62805;44.644;10.942;2022-12-10T01:50:29;28.08;;;12.77;;
74369;SDS011;62805;44.644;10.942;2022-12-10T01:52:55;31.42;;;13.02;;
74369;SDS011;62805;44.644;10.942;2022-12-10T01:58:21;32.72;;;13.57;;
74369;SDS011;62805;44.644;10.942;2022-12-10T02:00:51;26.50;;;12.45;;
74369;SDS011;62805;44.644;10.942;2022-12-10T02:03:35;28.63;;;12.90;;
74369;SDS011;62805;44.644;10.942;2022-12-10T02:06:09;27.50;;;12.07;;
74369;SDS011;62805;44.644;10.942;2022-12-10T02:08:43;31.35;;;13.50;;
74369;SDS011;62805;44.644;10.942;2022-12-10T02:11:18;25.98;;;13.15;;
74369;SDS011;62805;44.644;10.942;2022-12-10T02:16:36;29.67;;;12.23;;
74369;SDS011;62805;44.644;10.942;2022-12-10T02:19:11;31.85;;;13.20;;
74369;SDS011;62805;44.644;10.942;2022-12-10T02:21:41;25.70;;;11.60;;
74369;SDS011;62805;44.644;10.942;2022-12-10T02:24:10;27.77;;;12.18;;
74369;SDS011;62805;44.644;10.942;2022-12-10T02:31:44;25.45;;;12.20;;
74369;SDS011;62805;44.644;10.942;2022-12-10T02:34:12;32.25;;;13.00;;
74369;SDS011;62805;44.644;10.942;2022-12-10T02:36:38;32.80;;;13.25;;
74369;SDS011;62805;44.644;10.942;2022-12-10T02:39:06;25.92;;;12.57;;
74369;SDS011;62805;44.644;10.942;2022-12-10T02:41:44;30.48;;;13.25;;
74369;SDS011;62805;44.644;10.942;2022-12-10T02:44:13;28.15;;;12.77;;
74369;SDS011;62805;44.644;10.942;2022-12-10T02:49:06;27.55;;;14.02;;
74369;SDS011;62805;44.644;10.942;2022-12-10T02:51:33;23.48;;;12.02;;
74369;SDS011;62805;44.644;10.942;2022-12-10T02:54:03;25.58;;;13.48;;
74369;SDS011;62805;44.644;10.942;2022-12-10T02:56:33;27.55;;;12.82;;
74369;SDS011;62805;44.644;10.942;2022-12-10T03:07:46;25.85;;;13.02;;
74369;SDS011;62805;44.644;10.942;2022-12-10T03:12:51;29.75;;;12.70;;
74369;SDS011;62805;44.644;10.942;2022-12-10T03:15:21;31.38;;;14.27;;
74369;SDS011;62805;44.644;10.942;2022-12-10T03:17:47;29.92;;;13.82;;
74369;SDS011;62805;44.644;10.942;2022-12-10T03:20:14;33.05;;;13.35;;
74369;SDS011;62805;44.644;10.942;2022-12-10T03:22:41;32.70;;;14.60;;
74369;SDS011;62805;44.644;10.942;2022-12-10T03:25:10;32.05;;;14.85;;
74369;SDS011;62805;44.644;10.942;2022-12-10T03:27:37;29.88;;;14.30;;
74369;SDS011;62805;44.644;10.942;2022-12-10T03:30:04;24.30;;;12.18;;
74369;SDS011;62805;44.644;10.942;2022-12-10T03:32:30;29.17;;;13.45;;
74369;SDS011;62805;44.644;10.942;2022-12-10T03:34:56;31.95;;;14.57;;
74369;SDS011;62805;44.644;10.942;2022-12-10T03:37:23;28.10;;;13.45;;
74369;SDS011;62805;44.644;10.942;2022-12-10T03:39:49;34.88;;;14.48;;
74369;SDS011;62805;44.644;10.942;2022-12-10T03:42:15;30.70;;;14.38;;
74369;SDS011;62805;44.644;10.942;2022-12-10T03:44:41;29.45;;;13.00;;
74369;SDS011;62805;44.644;10.942;2022-12-10T03:47:07;30.55;;;14.75;;
74369;SDS011;62805;44.644;10.942;2022-12-10T03:49:34;27.45;;;13.32;;
74369;SDS011;62805;44.644;10.942;2022-12-10T03:52:00;32.38;;;16.30;;
74369;SDS011;62805;44.644;10.942;2022-12-10T03:54:25;24.33;;;12.20;;
74369;SDS011;62805;44.644;10.942;2022-12-10T03:56:51;30.77;;;13.93;;
74369;SDS011;62805;44.644;10.942;2022-12-10T03:59:16;28.10;;;13.75;;
74369;SDS011;62805;44.644;10.942;2022-12-10T04:01:41;31.67;;;14.85;;
74369;SDS011;62805;44.644;10.942;2022-12-10T04:04:07;29.42;;;13.98;;
74369;SDS011;62805;44.644;10.942;2022-12-10T04:06:33;30.08;;;14.20;;
74369;SDS011;62805;44.644;10.942;2022-12-10T04:08:59;34.00;;;14.30;;
74369;SDS011;62805;44.644;10.942;2022-12-10T04:11:24;31.25;;;13.85;;
74369;SDS011;62805;44.644;10.942;2022-12-10T04:13:50;30.75;;;14.27;;
74369;SDS011;62805;44.644;10.942;2022-12-10T04:16:34;28.77;;;14.45;;
74369;SDS011;62805;44.644;10.942;2022-12-10T04:19:07;30.17;;;14.48;;
74369;SDS011;62805;44.644;10.942;2022-12-10T04:21:35;33.40;;;15.90;;
74369;SDS011;62805;44.644;10.942;2022-12-10T04:24:21;32.75;;;16.05;;
74369;SDS011;62805;44.644;10.942;2022-12-10T04:27:08;32.78;;;14.82;;
74369;SDS011;62805;44.644;10.942;2022-12-10T04:29:35;31.98;;;14.25;;
74369;SDS011;62805;44.644;10.942;2022-12-10T04:32:01;28.07;;;13.43;;
74369;SDS011;62805;44.644;10.942;2022-12-10T04:34:26;31.92;;;14.90;;
74369;SDS011;62805;44.644;10.942;2022-12-10T04:36:53;33.97;;;14.48;;
74369;SDS011;62805;44.644;10.942;2022-12-10T04:39:19;32.03;;;13.93;;
74369;SDS011;62805;44.644;10.942;2022-12-10T04:41:45;32.63;;;14.52;;
74369;SDS011;62805;44.644;10.942;2022-12-10T04:44:12;32.20;;;15.02;;
74369;SDS011;62805;44.644;10.942;2022-12-10T04:46:38;30.27;;;16.33;;
74369;SDS011;62805;44.644;10.942;2022-12-10T04:49:03;32.30;;;15.07;;
74369;SDS011;62805;44.644;10.942;2022-12-10T04:51:30;36.95;;;17.00;;
74369;SDS011;62805;44.644;10.942;2022-12-10T04:53:56;34.78;;;16.17;;
74369;SDS011;62805;44.644;10.942;2022-12-10T04:56:21;32.92;;;16.63;;
74369;SDS011;62805;44.644;10.942;2022-12-10T04:58:46;33.47;;;16.00;;
74369;SDS011;62805;44.644;10.942;2022-12-10T05:01:12;34.10;;;16.13;;
74369;SDS011;62805;44.644;10.942;2022-12-10T05:03:39;34.63;;;16.75;;
74369;SDS011;62805;44.644;10.942;2022-12-10T05:06:05;32.75;;;16.02;;
74369;SDS011;62805;44.644;10.942;2022-12-10T05:08:36;33.08;;;14.88;;
74369;SDS011;62805;44.644;10.942;2022-12-10T05:11:03;34.92;;;16.77;;
74369;SDS011;62805;44.644;10.942;2022-12-10T05:13:32;33.92;;;16.30;;
74369;SDS011;62805;44.644;10.942;2022-12-10T05:15:57;35.58;;;17.58;;
74369;SDS011;62805;44.644;10.942;2022-12-10T05:18:23;34.17;;;15.60;;
74369;SDS011;62805;44.644;10.942;2022-12-10T05:20:48;31.77;;;15.85;;
74369;SDS011;62805;44.644;10.942;2022-12-10T05:23:14;36.25;;;16.67;;
74369;SDS011;62805;44.644;10.942;2022-12-10T05:28:34;39.70;;;18.00;;
74369;SDS011;62805;44.644;10.942;2022-12-10T05:31:03;39.42;;;16.67;;
74369;SDS011;62805;44.644;10.942;2022-12-10T05:33:29;33.53;;;16.83;;
74369;SDS011;62805;44.644;10.942;2022-12-10T05:35:56;33.95;;;17.08;;
74369;SDS011;62805;44.644;10.942;2022-12-10T05:38:25;39.35;;;17.95;;
74369;SDS011;62805;44.644;10.942;2022-12-10T05:40:52;28.70;;;13.30;;
74369;SDS011;62805;44.644;10.942;2022-12-10T05:43:17;33.22;;;15.65;;
74369;SDS011;62805;44.644;10.942;2022-12-10T05:45:43;30.83;;;13.68;;
74369;SDS011;62805;44.644;10.942;2022-12-10T05:48:09;32.58;;;14.40;;
74369;SDS011;62805;44.644;10.942;2022-12-10T05:50:36;33.45;;;16.23;;
74369;SDS011;62805;44.644;10.942;2022-12-10T05:53:01;33.50;;;16.40;;
74369;SDS011;62805;44.644;10.942;2022-12-10T05:55:27;35.35;;;16.42;;
74369;SDS011;62805;44.644;10.942;2022-12-10T05:57:54;33.33;;;15.52;;
74369;SDS011;62805;44.644;10.942;2022-12-10T06:00:20;28.77;;;14.23;;
74369;SDS011;62805;44.644;10.942;2022-12-10T06:02:48;36.17;;;15.40;;
74369;SDS011;62805;44.644;10.942;2022-12-10T06:05:14;29.00;;;13.85;;
74369;SDS011;62805;44.644;10.942;2022-12-10T06:07:41;31.13;;;15.00;;
74369;SDS011;62805;44.644;10.942;2022-12-10T06:10:06;31.88;;;15.77;;
74369;SDS011;62805;44.644;10.942;2022-12-10T06:12:32;28.67;;;14.25;;
74369;SDS011;62805;44.644;10.942;2022-12-10T06:14:57;29.67;;;15.33;;
74369;SDS011;62805;44.644;10.942;2022-12-10T06:17:23;28.38;;;14.77;;
74369;SDS011;62805;44.644;10.942;2022-12-10T06:19:48;30.00;;;15.13;;
74369;SDS011;62805;44.644;10.942;2022-12-10T06:22:14;32.10;;;15.20;;
74369;SDS011;62805;44.644;10.942;2022-12-10T06:24:39;29.60;;;14.20;;
74369;SDS011;62805;44.644;10.942;2022-12-10T06:27:05;31.00;;;13.38;;
74369;SDS011;62805;44.644;10.942;2022-12-10T06:29:30;34.35;;;15.30;;
74369;SDS011;62805;44.644;10.942;2022-12-10T06:31:56;35.55;;;18.08;;
74369;SDS011;62805;44.644;10.942;2022-12-10T06:34:21;33.60;;;16.20;;
74369;SDS011;62805;44.644;10.942;2022-12-10T06:36:47;34.35;;;15.93;;
74369;SDS011;62805;44.644;10.942;2022-12-10T06:39:12;35.10;;;16.13;;
74369;SDS011;62805;44.644;10.942;2022-12-10T06:41:38;28.90;;;13.43;;
74369;SDS011;62805;44.644;10.942;2022-12-10T06:44:06;29.92;;;15.45;;
74369;SDS011;62805;44.644;10.942;2022-12-10T06:46:32;29.77;;;14.30;;
74369;SDS011;62805;44.644;10.942;2022-12-10T06:48:58;33.60;;;14.65;;
74369;SDS011;62805;44.644;10.942;2022-12-10T06:51:23;27.48;;;12.15;;
74369;SDS011;62805;44.644;10.942;2022-12-10T06:53:49;31.50;;;14.98;;
74369;SDS011;62805;44.644;10.942;2022-12-10T06:56:15;30.57;;;13.77;;
74369;SDS011;62805;44.644;10.942;2022-12-10T06:58:42;30.67;;;14.65;;
74369;SDS011;62805;44.644;10.942;2022-12-10T07:03:34;28.77;;;14.60;;
74369;SDS011;62805;44.644;10.942;2022-12-10T07:06:00;31.83;;;14.98;;
74369;SDS011;62805;44.644;10.942;2022-12-10T07:08:26;31.50;;;13.85;;
74369;SDS011;62805;44.644;10.942;2022-12-10T07:10:52;32.67;;;14.95;;
74369;SDS011;62805;44.644;10.942;2022-12-10T07:13:17;30.52;;;15.15;;
74369;SDS011;62805;44.644;10.942;2022-12-10T07:15:43;35.08;;;15.80;;
74369;SDS011;62805;44.644;10.942;2022-12-10T07:18:08;27.50;;;12.98;;
74369;SDS011;62805;44.644;10.942;2022-12-10T07:20:34;30.08;;;13.77;;
74369;SDS011;62805;44.644;10.942;2022-12-10T07:22:59;30.25;;;15.40;;
74369;SDS011;62805;44.644;10.942;2022-12-10T07:25:25;34.47;;;16.33;;
74369;SDS011;62805;44.644;10.942;2022-12-10T07:27:50;31.23;;;14.80;;
74369;SDS011;62805;44.644;10.942;2022-12-10T07:30:16;32.75;;;15.60;;
74369;SDS011;62805;44.644;10.942;2022-12-10T07:32:41;30.48;;;13.65;;
74369;SDS011;62805;44.644;10.942;2022-12-10T07:35:07;33.53;;;16.07;;
74369;SDS011;62805;44.644;10.942;2022-12-10T07:37:33;33.25;;;15.48;;
74369;SDS011;62805;44.644;10.942;2022-12-10T07:39:58;30.83;;;15.75;;
74369;SDS011;62805;44.644;10.942;2022-12-10T07:42:23;31.90;;;15.20;;
74369;SDS011;62805;44.644;10.942;2022-12-10T07:44:49;33.28;;;15.95;;
74369;SDS011;62805;44.644;10.942;2022-12-10T07:47:14;24.88;;;11.85;;
74369;SDS011;62805;44.644;10.942;2022-12-10T07:49:40;35.17;;;17.60;;
74369;SDS011;62805;44.644;10.942;2022-12-10T07:52:07;34.33;;;14.02;;
74369;SDS011;62805;44.644;10.942;2022-12-10T07:54:33;31.65;;;15.82;;
74369;SDS011;62805;44.644;10.942;2022-12-10T07:56:59;34.58;;;16.75;;
74369;SDS011;62805;44.644;10.942;2022-12-10T07:59:24;32.40;;;15.77;;
74369;SDS011;62805;44.644;10.942;2022-12-10T08:01:50;32.92;;;15.82;;
74369;SDS011;62805;44.644;10.942;2022-12-10T08:04:15;35.70;;;16.45;;
74369;SDS011;62805;44.644;10.942;2022-12-10T08:06:41;28.42;;;14.45;;
74369;SDS011;62805;44.644;10.942;2022-12-10T08:09:06;31.20;;;15.45;;
74369;SDS011;62805;44.644;10.942;2022-12-10T08:11:32;34.35;;;16.25;;
74369;SDS011;62805;44.644;10.942;2022-12-10T08:13:58;31.98;;;15.95;;
74369;SDS011;62805;44.644;10.942;2022-12-10T08:16:24;34.25;;;17.65;;
74369;SDS011;62805;44.644;10.942;2022-12-10T08:18:51;27.15;;;15.88;;
74369;SDS011;62805;44.644;10.942;2022-12-10T08:21:18;33.55;;;16.10;;
74369;SDS011;62805;44.644;10.942;2022-12-10T08:23:45;30.63;;;14.02;;
74369;SDS011;62805;44.644;10.942;2022-12-10T08:26:18;31.58;;;15.60;;
74369;SDS011;62805;44.644;10.942;2022-12-10T08:28:45;34.17;;;16.42;;
74369;SDS011;62805;44.644;10.942;2022-12-10T08:31:11;38.10;;;17.10;;
74369;SDS011;62805;44.644;10.942;2022-12-10T08:33:38;33.72;;;16.13;;
74369;SDS011;62805;44.644;10.942;2022-12-10T08:36:05;39.08;;;17.80;;
74369;SDS011;62805;44.644;10.942;2022-12-10T08:38:31;35.90;;;17.30;;
74369;SDS011;62805;44.644;10.942;2022-12-10T08:40:58;39.03;;;17.80;;
74369;SDS011;62805;44.644;10.942;2022-12-10T08:43:23;42.92;;;17.77;;
74369;SDS011;62805;44.644;10.942;2022-12-10T08:45:49;39.70;;;18.83;;
74369;SDS011;62805;44.644;10.942;2022-12-10T08:48:14;39.97;;;18.95;;
74369;SDS011;62805;44.644;10.942;2022-12-10T08:50:40;39.83;;;19.40;;
74369;SDS011;62805;44.644;10.942;2022-12-10T08:53:05;42.63;;;19.65;;
74369;SDS011;62805;44.644;10.942;2022-12-10T08:55:31;41.60;;;20.05;;
74369;SDS011;62805;44.644;10.942;2022-12-10T08:57:56;39.30;;;16.42;;
74369;SDS011;62805;44.644;10.942;2022-12-10T09:00:23;38.03;;;17.52;;
74369;SDS011;62805;44.644;10.942;2022-12-10T09:02:49;38.53;;;18.52;;
74369;SDS011;62805;44.644;10.942;2022-12-10T09:05:14;43.03;;;19.90;;
74369;SDS011;62805;44.644;10.942;2022-12-10T09:07:40;43.83;;;23.58;;
74369;SDS011;62805;44.644;10.942;2022-12-10T09:10:05;45.70;;;23.50;;
74369;SDS011;62805;44.644;10.942;2022-12-10T09:12:32;42.05;;;20.10;;
74369;SDS011;62805;44.644;10.942;2022-12-10T09:14:58;44.95;;;20.75;;
74369;SDS011;62805;44.644;10.942;2022-12-10T09:17:24;42.10;;;19.83;;
74369;SDS011;62805;44.644;10.942;2022-12-10T09:19:50;38.70;;;18.42;;
74369;SDS011;62805;44.644;10.942;2022-12-10T09:22:15;39.70;;;17.40;;
74369;SDS011;62805;44.644;10.942;2022-12-10T09:24:41;35.92;;;17.13;;
74369;SDS011;62805;44.644;10.942;2022-12-10T09:27:06;46.20;;;20.95;;
74369;SDS011;62805;44.644;10.942;2022-12-10T09:29:32;41.72;;;20.20;;
74369;SDS011;62805;44.644;10.942;2022-12-10T09:31:57;43.53;;;20.50;;
74369;SDS011;62805;44.644;10.942;2022-12-10T09:34:22;46.97;;;22.52;;
74369;SDS011;62805;44.644;10.942;2022-12-10T09:36:48;41.03;;;18.58;;
74369;SDS011;62805;44.644;10.942;2022-12-10T09:39:13;43.05;;;19.17;;
74369;SDS011;62805;44.644;10.942;2022-12-10T09:41:47;41.58;;;18.73;;
74369;SDS011;62805;44.644;10.942;2022-12-10T09:44:31;50.22;;;22.23;;
74369;SDS011;62805;44.644;10.942;2022-12-10T09:47:03;41.60;;;18.70;;
74369;SDS011;62805;44.644;10.942;2022-12-10T09:52:26;44.88;;;21.15;;
74369;SDS011;62805;44.644;10.942;2022-12-10T09:55:02;46.42;;;19.85;;
74369;SDS011;62805;44.644;10.942;2022-12-10T09:57:35;42.17;;;18.35;;
74369;SDS011;62805;44.644;10.942;2022-12-10T10:02:55;45.80;;;19.98;;
74369;SDS011;62805;44.644;10.942;2022-12-10T10:05:22;42.95;;;19.67;;
74369;SDS011;62805;44.644;10.942;2022-12-10T10:07:54;45.08;;;21.80;;
74369;SDS011;62805;44.644;10.942;2022-12-10T10:10:25;44.17;;;19.95;;
74369;SDS011;62805;44.644;10.942;2022-12-10T10:12:57;43.75;;;20.65;;
74369;SDS011;62805;44.644;10.942;2022-12-10T10:15:30;43.45;;;20.58;;
74369;SDS011;62805;44.644;10.942;2022-12-10T10:17:58;45.63;;;19.02;;
74369;SDS011;62805;44.644;10.942;2022-12-10T10:20:27;38.95;;;18.90;;
74369;SDS011;62805;44.644;10.942;2022-12-10T10:22:53;45.83;;;21.40;;
74369;SDS011;62805;44.644;10.942;2022-12-10T10:25:21;39.80;;;18.15;;
74369;SDS011;62805;44.644;10.942;2022-12-10T10:27:47;45.50;;;20.42;;
74369;SDS011;62805;44.644;10.942;2022-12-10T10:30:16;47.70;;;21.40;;
74369;SDS011;62805;44.644;10.942;2022-12-10T10:32:45;46.38;;;21.08;;
74369;SDS011;62805;44.644;10.942;2022-12-10T10:35:20;40.10;;;18.73;;
74369;SDS011;62805;44.644;10.942;2022-12-10T10:37:46;45.97;;;20.75;;
74369;SDS011;62805;44.644;10.942;2022-12-10T10:40:25;46.22;;;20.23;;
74369;SDS011;62805;44.644;10.942;2022-12-10T10:42:58;48.40;;;21.75;;
74369;SDS011;62805;44.644;10.942;2022-12-10T10:45:38;48.08;;;23.17;;
74369;SDS011;62805;44.644;10.942;2022-12-10T10:48:06;41.65;;;17.83;;
74369;SDS011;62805;44.644;10.942;2022-12-10T10:50:38;45.40;;;20.85;;
74369;SDS011;62805;44.644;10.942;2022-12-10T10:56:17;47.92;;;21.48;;
74369;SDS011;62805;44.644;10.942;2022-12-10T10:58:52;46.55;;;21.20;;
74369;SDS011;62805;44.644;10.942;2022-12-10T11:01:18;45.97;;;20.60;;
74369;SDS011;62805;44.644;10.942;2022-12-10T11:04:02;49.35;;;23.88;;
74369;SDS011;62805;44.644;10.942;2022-12-10T11:06:28;48.35;;;20.45;;
74369;SDS011;62805;44.644;10.942;2022-12-10T11:08:57;47.08;;;22.35;;
74369;SDS011;62805;44.644;10.942;2022-12-10T11:11:37;50.03;;;20.38;;
74369;SDS011;62805;44.644;10.942;2022-12-10T11:19:35;42.13;;;19.95;;
74369;SDS011;62805;44.644;10.942;2022-12-10T11:22:16;44.90;;;18.80;;
74369;SDS011;62805;44.644;10.942;2022-12-10T11:24:45;48.28;;;22.00;;
74369;SDS011;62805;44.644;10.942;2022-12-10T11:27:13;47.55;;;22.55;;
74369;SDS011;62805;44.644;10.942;2022-12-10T11:38:20;50.33;;;21.48;;
74369;SDS011;62805;44.644;10.942;2022-12-10T11:40:50;53.22;;;26.70;;
74369;SDS011;62805;44.644;10.942;2022-12-10T11:51:25;46.88;;;21.13;;
74369;SDS011;62805;44.644;10.942;2022-12-10T11:56:49;47.10;;;20.42;;
74369;SDS011;62805;44.644;10.942;2022-12-10T11:59:34;50.15;;;21.92;;
74369;SDS011;62805;44.644;10.942;2022-12-10T12:05:06;44.35;;;19.75;;
74369;SDS011;62805;44.644;10.942;2022-12-10T12:11:08;49.00;;;20.52;;
74369;SDS011;62805;44.644;10.942;2022-12-10T12:14:02;43.55;;;20.27;;
74369;SDS011;62805;44.644;10.942;2022-12-10T12:16:43;42.60;;;17.48;;
74369;SDS011;62805;44.644;10.942;2022-12-10T12:19:46;39.22;;;18.02;;
74369;SDS011;62805;44.644;10.942;2022-12-10T12:22:38;42.30;;;18.55;;
74369;SDS011;62805;44.644;10.942;2022-12-10T12:25:16;45.35;;;18.90;;
74369;SDS011;62805;44.644;10.942;2022-12-10T12:28:00;44.10;;;19.40;;
74369;SDS011;62805;44.644;10.942;2022-12-10T12:30:30;43.53;;;19.85;;
74369;SDS011;62805;44.644;10.942;2022-12-10T12:33:00;43.28;;;20.13;;
74369;SDS011;62805;44.644;10.942;2022-12-10T12:38:32;44.83;;;19.00;;
74369;SDS011;62805;44.644;10.942;2022-12-10T12:41:04;43.72;;;19.85;;
74369;SDS011;62805;44.644;10.942;2022-12-10T12:46:00;43.67;;;20.00;;
74369;SDS011;62805;44.644;10.942;2022-12-10T12:51:52;45.33;;;17.90;;
74369;SDS011;62805;44.644;10.942;2022-12-10T12:54:20;43.10;;;18.88;;
74369;SDS011;62805;44.644;10.942;2022-12-10T13:02:39;41.72;;;17.85;;
74369;SDS011;62805;44.644;10.942;2022-12-10T13:10:44;38.38;;;17.45;;
74369;SDS011;62805;44.644;10.942;2022-12-10T13:13:22;42.58;;;22.67;;
74369;SDS011;62805;44.644;10.942;2022-12-10T13:15:50;35.40;;;15.68;;
74369;SDS011;62805;44.644;10.942;2022-12-10T13:23:51;40.42;;;16.95;;
74369;SDS011;62805;44.644;10.942;2022-12-10T13:28:53;35.25;;;14.68;;
74369;SDS011;62805;44.644;10.942;2022-12-10T13:31:22;28.33;;;12.73;;
74369;SDS011;62805;44.644;10.942;2022-12-10T13:36:28;32.65;;;15.95;;
74369;SDS011;62805;44.644;10.942;2022-12-10T13:41:29;30.05;;;13.25;;
74369;SDS011;62805;44.644;10.942;2022-12-10T13:47:32;32.10;;;13.65;;
74369;SDS011;62805;44.644;10.942;2022-12-10T13:53:24;31.48;;;13.70;;
74369;SDS011;62805;44.644;10.942;2022-12-10T13:55:55;32.25;;;13.48;;
74369;SDS011;62805;44.644;10.942;2022-12-10T13:58:49;28.63;;;12.95;;
74369;SDS011;62805;44.644;10.942;2022-12-10T14:07:25;32.58;;;15.32;;
74369;SDS011;62805;44.644;10.942;2022-12-10T14:09:52;32.75;;;14.73;;
74369;SDS011;62805;44.644;10.942;2022-12-10T14:14:58;29.10;;;12.98;;
74369;SDS011;62805;44.644;10.942;2022-12-10T14:17:37;24.92;;;11.30;;
74369;SDS011;62805;44.644;10.942;2022-12-10T14:20:06;30.60;;;14.35;;
74369;SDS011;62805;44.644;10.942;2022-12-10T14:22:33;30.98;;;13.32;;
74369;SDS011;62805;44.644;10.942;2022-12-10T14:25:05;30.70;;;13.13;;
74369;SDS011;62805;44.644;10.942;2022-12-10T14:27:34;25.83;;;13.30;;
74369;SDS011;62805;44.644;10.942;2022-12-10T14:30:03;27.80;;;13.75;;
74369;SDS011;62805;44.644;10.942;2022-12-10T14:32:32;27.20;;;14.10;;
74369;SDS011;62805;44.644;10.942;2022-12-10T14:34:59;29.13;;;13.15;;
74369;SDS011;62805;44.644;10.942;2022-12-10T14:37:26;30.50;;;14.40;;
74369;SDS011;62805;44.644;10.942;2022-12-10T14:39:53;29.60;;;13.75;;
74369;SDS011;62805;44.644;10.942;2022-12-10T14:42:19;27.52;;;11.65;;
74369;SDS011;62805;44.644;10.942;2022-12-10T14:44:45;25.10;;;11.90;;
74369;SDS011;62805;44.644;10.942;2022-12-10T14:47:16;24.80;;;11.65;;
74369;SDS011;62805;44.644;10.942;2022-12-10T14:49:48;23.85;;;11.50;;
74369;SDS011;62805;44.644;10.942;2022-12-10T14:52:19;25.17;;;11.18;;
74369;SDS011;62805;44.644;10.942;2022-12-10T14:54:45;22.70;;;11.00;;
74369;SDS011;62805;44.644;10.942;2022-12-10T14:57:18;24.05;;;10.80;;
74369;SDS011;62805;44.644;10.942;2022-12-10T15:02:24;25.13;;;11.17;;
74369;SDS011;62805;44.644;10.942;2022-12-10T15:04:53;26.92;;;11.90;;
74369;SDS011;62805;44.644;10.942;2022-12-10T15:07:25;26.85;;;11.95;;
74369;SDS011;62805;44.644;10.942;2022-12-10T15:09:52;24.27;;;11.70;;
74369;SDS011;62805;44.644;10.942;2022-12-10T15:15:00;24.05;;;10.68;;
74369;SDS011;62805;44.644;10.942;2022-12-10T15:17:38;28.35;;;12.38;;
74369;SDS011;62805;44.644;10.942;2022-12-10T15:20:51;24.45;;;10.80;;
74369;SDS011;62805;44.644;10.942;2022-12-10T15:28:39;29.40;;;15.05;;
74369;SDS011;62805;44.644;10.942;2022-12-10T15:33:56;26.50;;;11.80;;
74369;SDS011;62805;44.644;10.942;2022-12-10T15:36:28;27.60;;;11.98;;
74369;SDS011;62805;44.644;10.942;2022-12-10T15:38:57;22.23;;;10.60;;
74369;SDS011;62805;44.644;10.942;2022-12-10T15:44:00;23.45;;;10.40;;
74369;SDS011;62805;44.644;10.942;2022-12-10T15:46:28;23.42;;;11.02;;
74369;SDS011;62805;44.644;10.942;2022-12-10T15:48:53;24.50;;;11.00;;
74369;SDS011;62805;44.644;10.942;2022-12-10T15:51:19;21.38;;;9.60;;
74369;SDS011;62805;44.644;10.942;2022-12-10T15:53:44;21.23;;;10.50;;
74369;SDS011;62805;44.644;10.942;2022-12-10T15:56:10;23.08;;;10.52;;
74369;SDS011;62805;44.644;10.942;2022-12-10T15:58:35;22.70;;;10.57;;
74369;SDS011;62805;44.644;10.942;2022-12-10T16:01:00;26.20;;;11.77;;
74369;SDS011;62805;44.644;10.942;2022-12-10T16:03:27;23.73;;;11.23;;
74369;SDS011;62805;44.644;10.942;2022-12-10T16:05:53;23.10;;;11.23;;
74369;SDS011;62805;44.644;10.942;2022-12-10T16:08:26;26.15;;;10.85;;
74369;SDS011;62805;44.644;10.942;2022-12-10T16:10:54;31.73;;;12.10;;
74369;SDS011;62805;44.644;10.942;2022-12-10T16:16:04;29.85;;;11.15;;
74369;SDS011;62805;44.644;10.942;2022-12-10T16:18:31;25.58;;;11.20;;
74369;SDS011;62805;44.644;10.942;2022-12-10T16:20:56;22.40;;;9.93;;
74369;SDS011;62805;44.644;10.942;2022-12-10T16:23:22;24.23;;;10.88;;
74369;SDS011;62805;44.644;10.942;2022-12-10T16:25:47;25.20;;;11.07;;
74369;SDS011;62805;44.644;10.942;2022-12-10T16:28:14;24.02;;;12.80;;
74369;SDS011;62805;44.644;10.942;2022-12-10T16:30:46;25.42;;;11.35;;
74369;SDS011;62805;44.644;10.942;2022-12-10T16:33:22;26.00;;;12.02;;